Sugar Bowl, California Weather observations

Data are for observation ending at time listed.
 Day   Time    Ave.   Ave.  Ave.  Vector   Max.   Stn.    Total    Solar   Ave.   Snow 
  of    of     Air    Rel.  Wind   Wind    Wind   Baro.  Precip.   Rad.    Soil   Depth
Year   Day     Temp.  Hum.  Speed  Dir.    Gust   Pres.                    Temp.       
2016   (PST)    F      %     mph   deg.    mph     mb.     in.     W/m2     F      in. 
---------------------------------------------------------------------------------------  
  44    2:00   32.3    62    0.0     0      0.0   793.4    0.00       0    999.0   57.8
  44    2:10   32.0    62    0.1   290      0.9   793.4    0.00       0    999.0   57.7
  44    2:20   32.1    60    0.0   106      1.0   793.4    0.00       0    999.0   57.7
  44    2:30   31.9    59    0.3    80      2.4   793.4    0.00       0    999.0   57.7
  44    2:40   31.9    59    0.0   308      0.9   793.5    0.00       0    999.0   57.7
  44    2:50   31.8    58    0.3   218      2.4   793.5    0.00       0    999.0   57.7
  44    3:00   31.6    58    0.1    76      1.6   793.5    0.00       0    999.0   57.7
  44    3:10   31.2    57    0.0   139      0.8   793.6    0.00       0    999.0   57.7
  44    3:20   30.7    55    0.1    89      1.9   793.6    0.00       0    999.0   57.7
  44    3:30   30.3    56    0.2    94      1.5   793.6    0.00       0    999.0   57.8
  44    3:40   29.6    56    0.0   218      0.9   793.6    0.00       0    999.0   57.6
  44    3:50   29.7    54    0.4   130      3.3   793.5    0.00       0    999.0   57.6
  44    4:00   29.9    52    0.7   183      4.2   793.5    0.00       0    999.0   57.7
  44    4:10   30.5    48    0.4   158      1.8   793.5    0.00       0    999.0   57.6
  44    4:20   29.9    51    0.5    87      3.3   793.5    0.00       0    999.0   57.7
  44    4:30   29.4    52    0.2    92      1.7   793.5    0.00       0    999.0   57.7
  44    4:40   29.8    49    0.4   207      3.9   793.6    0.00       0    999.0   57.6
  44    4:50   29.6    48    0.4   105      2.2   793.6    0.00       0    999.0   57.7
  44    5:00   28.9    49    0.2    59      2.4   793.6    0.00       0    999.0   57.7
  44    5:10   28.4    49    0.6   220      2.8   793.6    0.00       0    999.0   57.7
  44    5:20   28.6    47    0.2   181      2.3   793.6    0.00       0    999.0   57.5
  44    5:30   28.4    46    0.1   310      1.2   793.7    0.00       0    999.0   57.6
  44    5:40   28.0    47    0.0    97      0.7   793.8    0.00       0    999.0   57.6
  44    5:50   28.0    45    0.3   153      2.3   793.8    0.00       0    999.0   57.6
  44    6:00   28.4    43    0.1   170      0.9   793.8    0.00       0    999.0   57.7
  44    6:10   28.6    41    0.4    66      2.0   793.8    0.00       0    999.0   57.8
  44    6:20   28.4    40    0.0     0      0.0   793.9    0.00       0    999.0   57.7
  44    6:30   27.9    41    0.0    58      0.2   794.0    0.00       0    999.0   57.7
  44    6:40   27.9    39    0.1   299      1.4   794.0    0.00       0    999.0   57.9
  44    6:50   27.9    39    0.0     0      0.0   794.1    0.00       1    999.0   57.8
  44    7:00   27.7    40    0.2   305      2.0   794.1    0.00       2    999.0   57.7
  44    7:10   28.1    39    0.9   101      4.4   794.2    0.00       4    999.0   57.7
  44    7:20   28.5    36    0.7   261      3.4   794.3    0.00       6    999.0   57.7
  44    7:30   29.2    33    0.7    36      2.9   794.4    0.00       8    999.0   57.6
  44    7:40   29.3    32    0.3   180      2.9   794.5    0.00       9    999.0   57.7
  44    7:50   30.0    31    0.4    58      3.9   794.5    0.00      20    999.0   57.7
  44    8:00   31.3    30    0.1   175      1.5   794.6    0.00      34    999.0   57.7
  44    8:10   32.6    30    0.6   355      3.5   794.7    0.00      67    999.0   57.6
  44    8:20   33.5    30    0.7    74      5.9   794.8    0.00     116    999.0   57.6
  44    8:30   34.3    29    0.6   242      3.7   794.8    0.00      64    999.0   57.5
  44    8:40   36.2    27    0.7   137      3.7   794.8    0.00      48    999.0   57.3
  44    8:50   37.3    27    0.4   179      3.5   794.8    0.00      48    999.0   57.3
  44    9:00   39.2    23    1.2   195      5.2   794.8    0.00      67    999.0   57.2
  44    9:10   40.4    22    1.5   193      6.6   794.8    0.00     119    999.0   56.9
  44    9:20   41.3    22    1.2   150      3.5   794.8    0.00     209    999.0   57.0
  44    9:30   43.0    20    1.9   188      6.2   794.9    0.00     131    999.0   56.8
  44    9:40   44.5    20    1.5   190      5.9   794.9    0.00      75    999.0   56.6
  44    9:50   43.8    20    1.7   136      6.1   794.9    0.00     103    999.0   56.8
  44   10:00   43.8    21    1.3   185      5.5   794.8    0.00     341    999.0   56.7
  44   10:10   45.1    18    2.1    80      9.8   794.8    0.00     586    999.0   56.7
  44   10:20   47.9    12    2.6    51      7.2   794.9    0.00     625    999.0   56.8
  44   10:30   50.0    12    1.4    41      7.0   794.9    0.00     645    999.0   56.5
  44   10:40   50.5    12    2.3    48     12.3   794.9    0.00     665    999.0   56.3
  44   10:50   50.1    12    2.3    60      8.1   794.9    0.00     681    999.0   56.2
  44   11:00   50.6    14    1.2    62      3.8   795.0    0.00     694    999.0   56.0
  44   11:10   50.6    14    2.3   147      6.6   794.9    0.00     707    999.0   56.0
  44   11:20   50.0    13    1.9   166      7.0   794.8    0.00     718    999.0   56.3
  44   11:30   50.0    15    2.1   196     10.4   794.7    0.00     727    999.0   56.3
  44   11:40   50.3    16    2.2   160      9.1   794.7    0.00     735    999.0   56.3
  44   11:50   49.8    14    2.9   178      6.8   794.6    0.00     740    999.0   56.3
  44   12:00   50.7    12    2.2   149      6.1   794.5    0.00     744    999.0   56.3
  44   12:10   51.4    14    2.0   173      5.0   794.6    0.00     747    999.0   55.8
  44   12:20   50.5    15    3.0   180     11.0   794.5    0.00     734    999.0   55.8
  44   12:30   51.4    14    2.4   181      9.9   794.4    0.00     711    999.0   55.9
  44   12:40   53.4    12    1.6   287      8.1   794.4    0.00     725    999.0   56.0
  44   12:50   54.2    12    2.0   276     10.6   794.2    0.00     734    999.0   55.8
  44   13:00   53.7    13    2.2   212      8.7   794.0    0.00     730    999.0   55.8
  44   13:10   53.3    13    2.3   248      9.8   793.9    0.00     681    999.0   55.8
  44   13:20   53.1    12    2.3   265      5.9   793.8    0.00     137    999.0   56.1
  44   13:30   52.4    12    3.2   231     12.9   793.6    0.00     146    999.0   56.2
  44   13:40   51.4    14    2.7   209     11.0   793.4    0.00     167    999.0   56.3
  44   13:50   51.9    13    2.1   290     11.4   793.3    0.00     176    999.0   56.4
  44   14:00   51.9    14    2.5   249      8.0   793.3    0.00      63    999.0   56.4
  44   14:10   51.7    15    1.4   258      6.4   793.3    0.00     197    999.0   56.5
  44   14:20   51.7    15    2.3   206      8.7   793.2    0.00      92    999.0   56.5
  44   14:30   51.2    17    2.1   260      9.9   793.2    0.00      55    999.0   56.3
  44   14:40   51.3    18    2.9   270     10.4   793.2    0.00      59    999.0   56.2
  44   14:50   51.7    17    3.3   275      8.4   793.1    0.00     116    999.0   56.1
  44   15:00   51.7    17    2.2   273      9.4   793.1    0.00     258    999.0   56.2
  44   15:10   50.5    18    2.6   281      9.6   793.2    0.00     123    999.0   56.5
  44   15:20   49.7    20    2.8   218      8.7   793.3    0.00     137    999.0   56.5
  44   15:30   49.5    23    2.5   230      8.7   793.2    0.00     127    999.0   56.4
  44   15:40   49.7    23    2.0   234      7.2   793.3    0.00     193    999.0   56.4
  44   15:50   49.1    24    3.0   223      9.6   793.4    0.00     187    999.0   56.5
  44   16:00   49.1    24    2.8   227      8.3   793.4    0.00     149    999.0   56.5
  44   16:10   49.6    25    2.0   231      9.4   793.4    0.00     216    999.0   56.5
  44   16:20   49.2    27    2.5   219      6.3   793.4    0.00     181    999.0   56.6
  44   16:30   47.5    30    2.8   223      9.6   793.3    0.00      56    999.0   56.7
  44   16:40   46.0    34    2.4   206      9.6   793.3    0.00      47    999.0   56.5
  44   16:50   44.9    37    1.8   217      6.3   793.3    0.00      19    999.0   56.7
  44   17:00   44.1    40    1.6   209      5.0   793.4    0.00      25    999.0   56.7
  44   17:10   43.8    40    1.8   210      5.6   793.6    0.00      27    999.0   56.7
  44   17:20   43.7    40    2.1   204      7.2   793.6    0.00      17    999.0   56.8
  44   17:30   43.2    42    2.4   210     13.4   793.6    0.00       7    999.0   56.7
  44   17:40   42.7    46    2.3   208     10.1   793.6    0.00       2    999.0   56.7
  44   17:50   42.3    51    2.1   213      9.6   793.7    0.00       1    999.0   56.7
  44   18:00   41.8    55    1.7   212      9.3   793.7    0.00       0    999.0   56.9
  44   18:10   41.2    57    0.6   267      2.5   793.8    0.00       0    999.0   56.9
  44   18:20   40.4    59    0.7   186      4.7   793.9    0.00       0    999.0   56.9
  44   18:30   39.4    61    0.8   122      2.7   794.1    0.00       0    999.0   56.9
  44   18:40   38.9    62    0.0    60      0.9   794.2    0.00       0    999.0   57.1
  44   18:50   38.6    62    0.2   165      2.0   794.1    0.00       0    999.0   56.8
  44   19:00   37.7    64    0.1    90      2.1   794.1    0.00       0    999.0   57.1
  44   19:10   37.3    64    0.1   287      1.0   794.2    0.00       0    999.0   57.0
  44   19:20   36.9    63    0.1   354      1.3   794.1    0.00       0    999.0   57.0
  44   19:30   36.3    64    0.3    49      2.1   794.2    0.00       0    999.0   57.0
  44   19:40   36.0    64    0.0     0      0.0   794.3    0.00       0    999.0   56.9
  44   19:50   36.0    64    0.8   155      3.4   794.4    0.00       0    999.0   57.0
  44   20:00   35.7    65    0.8   277      3.1   794.4    0.00       0    999.0   56.9
  44   20:10   35.6    66    0.3   272      3.3   794.5    0.00       0    999.0   57.0
  44   20:20   35.3    66    0.1    91      0.9   794.5    0.00       0    999.0   56.9
  44   20:30   35.0    67    0.1   316      1.5   794.4    0.00       0    999.0   56.8
  44   20:40   34.9    67    0.3   199      2.6   794.5    0.00       0    999.0   56.9
  44   20:50   34.7    67    0.2   139      1.6   794.4    0.00       0    999.0   56.8
  44   21:00   34.6    67    0.5   260      2.6   794.4    0.00       0    999.0   56.9
  44   21:10   34.7    66    0.2   172      2.4   794.5    0.00       0    999.0   56.8
  44   21:20   34.7    66    0.0     0      0.0   794.6    0.00       0    999.0   56.9
  44   21:30   34.5    66    0.1   306      1.4   794.7    0.00       0    999.0   57.0
  44   21:40   34.4    66    0.7    67      3.5   794.7    0.00       0    999.0   56.8
  44   21:50   34.0    68    0.1   195      2.3   794.6    0.00       0    999.0   57.0
  44   22:00   34.3    67    0.4   271      3.1   794.6    0.00       0    999.0   57.0
  44   22:10   34.6    67    0.7    28      3.1   794.9    0.00       0    999.0   56.8
  44   22:20   33.3    71    0.0   119      0.1   794.9    0.00       0    999.0   56.9
  44   22:30   33.5    70    0.1   178      0.8   794.9    0.00       0    999.0   57.0
  44   22:40   34.6    67    0.1   236      1.3   794.8    0.00       0    999.0   56.9
  44   22:50   35.2    66    0.5    50      3.2   794.8    0.00       0    999.0   56.9
  44   23:00   35.5    64    0.2   179      2.9   794.8    0.00       0    999.0   57.0
  44   23:10   38.4    58    2.2   199     12.9   794.7    0.00       0    999.0   56.9
  44   23:20   39.0    58    0.4   317      2.1   794.6    0.00       0    999.0   56.6
  44   23:30   36.6    62    0.7   296      3.6   794.5    0.00       0    999.0   56.8
  44   23:40   37.1    60    0.8   276      3.2   794.5    0.00       0    999.0   57.0
  44   23:50   37.1    61    0.4   295      2.2   794.5    0.00       0    999.0   56.8
  45    0:00   36.2    63    0.5   324      4.5   794.7    0.00       0    999.0   56.8
  45    0:10   35.3    66    0.2   214      1.6   794.8    0.00       0    999.0   56.9
  45    0:20   34.8    67    0.5    86      3.4   794.9    0.00       0    999.0   56.8
  45    0:30   34.6    67    0.5    82      2.6   794.8    0.00       0    999.0   56.9
  45    0:40   34.8    66    1.2   227      4.5   794.8    0.00       0    999.0   57.0
  45    0:50   35.5    65    0.7   252      4.4   794.7    0.00       0    999.0   56.8
  45    1:00   34.1    68    0.5   311      3.0   794.9    0.00       0    999.0   56.7
  45    1:10   33.3    70    0.6   336      3.8   794.7    0.00       0    999.0   56.9
  45    1:20   33.6    69    0.5   192      4.2   794.8    0.00       0    999.0   56.9
  45    1:30   33.8    69    0.3    17      1.7   794.7    0.00       0    999.0   56.8
  45    1:40   34.4    67    0.7   172      3.4   794.5    0.00       0    999.0   56.9
  45    1:50   34.3    67    0.2   110      2.0   794.2    0.00       0    999.0   56.9

Return to Sugar Bowl graphs page.


Western Regional Climate Center,wrcc@dri.edu